sensor_id;sensor_type;location;lat;lon;timestamp;temperature;humidity
35027;DHT22;60696;51.426;6.934;2023-02-08T00:00:40;0.40;99.90
35027;DHT22;60696;51.426;6.934;2023-02-08T00:03:06;0.40;99.90
35027;DHT22;60696;51.426;6.934;2023-02-08T00:05:32;0.40;99.90
35027;DHT22;60696;51.426;6.934;2023-02-08T00:07:58;0.40;99.90
35027;DHT22;60696;51.426;6.934;2023-02-08T00:10:23;0.30;99.90
35027;DHT22;60696;51.426;6.934;2023-02-08T00:12:49;0.30;99.90
35027;DHT22;60696;51.426;6.934;2023-02-08T00:15:17;0.40;99.90
35027;DHT22;60696;51.426;6.934;2023-02-08T00:17:42;0.60;99.90
35027;DHT22;60696;51.426;6.934;2023-02-08T00:20:08;0.60;99.90
35027;DHT22;60696;51.426;6.934;2023-02-08T00:22:34;0.70;99.90
35027;DHT22;60696;51.426;6.934;2023-02-08T00:25:00;0.80;99.90
35027;DHT22;60696;51.426;6.934;2023-02-08T00:27:25;0.80;99.90
35027;DHT22;60696;51.426;6.934;2023-02-08T00:29:51;0.80;99.90
35027;DHT22;60696;51.426;6.934;2023-02-08T00:32:17;0.80;99.90
35027;DHT22;60696;51.426;6.934;2023-02-08T00:34:42;0.70;99.90
35027;DHT22;60696;51.426;6.934;2023-02-08T00:37:08;0.70;99.90
35027;DHT22;60696;51.426;6.934;2023-02-08T00:39:33;0.70;99.90
35027;DHT22;60696;51.426;6.934;2023-02-08T00:41:59;0.70;99.90
35027;DHT22;60696;51.426;6.934;2023-02-08T00:44:24;0.60;99.90
35027;DHT22;60696;51.426;6.934;2023-02-08T00:46:50;0.60;99.90
35027;DHT22;60696;51.426;6.934;2023-02-08T00:49:16;0.60;99.90
35027;DHT22;60696;51.426;6.934;2023-02-08T00:51:41;0.70;99.90
35027;DHT22;60696;51.426;6.934;2023-02-08T00:54:17;0.70;99.90
35027;DHT22;60696;51.426;6.934;2023-02-08T00:56:43;0.80;99.90
35027;DHT22;60696;51.426;6.934;2023-02-08T00:59:09;0.90;99.90
35027;DHT22;60696;51.426;6.934;2023-02-08T01:01:35;0.90;99.90
35027;DHT22;60696;51.426;6.934;2023-02-08T01:04:01;1.00;99.90
35027;DHT22;60696;51.426;6.934;2023-02-08T01:06:27;1.10;99.90
35027;DHT22;60696;51.426;6.934;2023-02-08T01:08:53;1.00;99.90
35027;DHT22;60696;51.426;6.934;2023-02-08T01:11:20;0.90;99.90
35027;DHT22;60696;51.426;6.934;2023-02-08T01:13:48;1.00;99.90
35027;DHT22;60696;51.426;6.934;2023-02-08T01:16:19;1.10;99.90
35027;DHT22;60696;51.426;6.934;2023-02-08T01:18:47;1.00;99.90
35027;DHT22;60696;51.426;6.934;2023-02-08T01:21:16;1.10;99.90
35027;DHT22;60696;51.426;6.934;2023-02-08T01:23:43;1.20;99.90
35027;DHT22;60696;51.426;6.934;2023-02-08T01:26:13;1.20;99.90
35027;DHT22;60696;51.426;6.934;2023-02-08T01:28:39;1.20;99.90
35027;DHT22;60696;51.426;6.934;2023-02-08T01:31:07;1.20;99.90
35027;DHT22;60696;51.426;6.934;2023-02-08T01:33:33;1.30;99.90
35027;DHT22;60696;51.426;6.934;2023-02-08T01:35:58;1.30;99.90
35027;DHT22;60696;51.426;6.934;2023-02-08T01:38:24;1.40;99.90
35027;DHT22;60696;51.426;6.934;2023-02-08T01:40:49;1.30;99.90
35027;DHT22;60696;51.426;6.934;2023-02-08T01:43:24;1.30;99.90
35027;DHT22;60696;51.426;6.934;2023-02-08T01:45:50;1.30;99.90
35027;DHT22;60696;51.426;6.934;2023-02-08T01:48:36;1.30;99.90
35027;DHT22;60696;51.426;6.934;2023-02-08T01:51:22;1.30;99.90
35027;DHT22;60696;51.426;6.934;2023-02-08T01:53:52;1.20;99.90
35027;DHT22;60696;51.426;6.934;2023-02-08T01:56:30;1.20;99.90
35027;DHT22;60696;51.426;6.934;2023-02-08T01:58:59;1.40;99.90
35027;DHT22;60696;51.426;6.934;2023-02-08T02:01:27;1.40;99.90
35027;DHT22;60696;51.426;6.934;2023-02-08T02:03:53;1.40;99.90
35027;DHT22;60696;51.426;6.934;2023-02-08T02:06:27;1.40;99.90
35027;DHT22;60696;51.426;6.934;2023-02-08T02:09:11;1.40;99.90
35027;DHT22;60696;51.426;6.934;2023-02-08T02:11:38;1.40;99.90
35027;DHT22;60696;51.426;6.934;2023-02-08T02:14:04;1.40;99.90
35027;DHT22;60696;51.426;6.934;2023-02-08T02:16:30;1.30;99.90
35027;DHT22;60696;51.426;6.934;2023-02-08T02:18:56;1.20;99.90
35027;DHT22;60696;51.426;6.934;2023-02-08T02:32:07;0.80;99.90
35027;DHT22;60696;51.426;6.934;2023-02-08T02:35:04;0.80;99.90
35027;DHT22;60696;51.426;6.934;2023-02-08T02:43:14;0.80;99.90
35027;DHT22;60696;51.426;6.934;2023-02-08T02:51:42;0.50;99.90
35027;DHT22;60696;51.426;6.934;2023-02-08T02:54:17;0.40;99.90
35027;DHT22;60696;51.426;6.934;2023-02-08T02:56:48;0.30;99.90
35027;DHT22;60696;51.426;6.934;2023-02-08T02:59:15;0.30;99.90
35027;DHT22;60696;51.426;6.934;2023-02-08T03:01:43;0.30;99.90
35027;DHT22;60696;51.426;6.934;2023-02-08T03:04:44;0.20;99.90
35027;DHT22;60696;51.426;6.934;2023-02-08T03:07:29;0.20;99.90
35027;DHT22;60696;51.426;6.934;2023-02-08T03:21:37;-0.10;99.90
35027;DHT22;60696;51.426;6.934;2023-02-08T03:26:46;-0.20;99.90
35027;DHT22;60696;51.426;6.934;2023-02-08T03:32:08;-0.20;99.90
35027;DHT22;60696;51.426;6.934;2023-02-08T03:34:42;-0.20;99.90
35027;DHT22;60696;51.426;6.934;2023-02-08T03:37:14;-0.20;99.90
35027;DHT22;60696;51.426;6.934;2023-02-08T03:39:42;-0.20;99.90
35027;DHT22;60696;51.426;6.934;2023-02-08T03:42:15;-0.20;99.90
35027;DHT22;60696;51.426;6.934;2023-02-08T03:44:47;-0.20;99.90
35027;DHT22;60696;51.426;6.934;2023-02-08T03:47:24;-0.20;99.90
35027;DHT22;60696;51.426;6.934;2023-02-08T03:49:53;-0.30;99.90
35027;DHT22;60696;51.426;6.934;2023-02-08T03:52:20;-0.30;99.90
35027;DHT22;60696;51.426;6.934;2023-02-08T03:55:09;-0.40;99.90
35027;DHT22;60696;51.426;6.934;2023-02-08T03:57:45;-0.40;99.90
35027;DHT22;60696;51.426;6.934;2023-02-08T04:00:13;-0.40;99.90
35027;DHT22;60696;51.426;6.934;2023-02-08T04:02:53;-0.50;99.90
35027;DHT22;60696;51.426;6.934;2023-02-08T04:05:20;-0.50;99.90
35027;DHT22;60696;51.426;6.934;2023-02-08T04:07:46;-0.50;99.90
35027;DHT22;60696;51.426;6.934;2023-02-08T04:10:12;-0.50;99.90
35027;DHT22;60696;51.426;6.934;2023-02-08T04:12:38;-0.50;99.90
35027;DHT22;60696;51.426;6.934;2023-02-08T04:15:03;-0.50;99.90
35027;DHT22;60696;51.426;6.934;2023-02-08T04:17:29;-0.50;99.90
35027;DHT22;60696;51.426;6.934;2023-02-08T04:19:55;-0.40;99.90
35027;DHT22;60696;51.426;6.934;2023-02-08T04:22:20;-0.50;99.90
35027;DHT22;60696;51.426;6.934;2023-02-08T04:24:46;-0.50;99.90
35027;DHT22;60696;51.426;6.934;2023-02-08T04:27:11;-0.50;99.90
35027;DHT22;60696;51.426;6.934;2023-02-08T04:29:37;-0.50;99.90
35027;DHT22;60696;51.426;6.934;2023-02-08T04:32:02;-0.50;99.90
35027;DHT22;60696;51.426;6.934;2023-02-08T04:34:29;-0.60;99.90
35027;DHT22;60696;51.426;6.934;2023-02-08T04:36:54;-0.60;99.90
35027;DHT22;60696;51.426;6.934;2023-02-08T04:39:20;-0.60;99.90
35027;DHT22;60696;51.426;6.934;2023-02-08T04:41:46;-0.70;99.90
35027;DHT22;60696;51.426;6.934;2023-02-08T04:44:11;-0.70;99.90
35027;DHT22;60696;51.426;6.934;2023-02-08T04:46:37;-0.70;99.90
35027;DHT22;60696;51.426;6.934;2023-02-08T04:49:02;-0.70;99.90
35027;DHT22;60696;51.426;6.934;2023-02-08T04:51:28;-0.70;99.90
35027;DHT22;60696;51.426;6.934;2023-02-08T04:53:54;-0.70;99.90
35027;DHT22;60696;51.426;6.934;2023-02-08T04:56:19;-0.80;99.90
35027;DHT22;60696;51.426;6.934;2023-02-08T04:58:45;-0.80;99.90
35027;DHT22;60696;51.426;6.934;2023-02-08T05:01:12;-0.80;99.90
35027;DHT22;60696;51.426;6.934;2023-02-08T05:03:39;-0.70;99.90
35027;DHT22;60696;51.426;6.934;2023-02-08T05:06:05;-0.70;99.90
35027;DHT22;60696;51.426;6.934;2023-02-08T05:08:31;-0.60;99.90
35027;DHT22;60696;51.426;6.934;2023-02-08T05:10:57;-0.70;99.90
35027;DHT22;60696;51.426;6.934;2023-02-08T05:13:22;-0.70;99.90
35027;DHT22;60696;51.426;6.934;2023-02-08T05:15:48;-0.70;99.90
35027;DHT22;60696;51.426;6.934;2023-02-08T05:18:14;-0.50;99.90
35027;DHT22;60696;51.426;6.934;2023-02-08T05:20:39;-0.60;99.90
35027;DHT22;60696;51.426;6.934;2023-02-08T05:23:05;-0.50;99.90
35027;DHT22;60696;51.426;6.934;2023-02-08T05:25:30;-0.50;99.90
35027;DHT22;60696;51.426;6.934;2023-02-08T05:27:56;-0.50;99.90
35027;DHT22;60696;51.426;6.934;2023-02-08T05:30:23;-0.50;99.90
35027;DHT22;60696;51.426;6.934;2023-02-08T05:32:48;-0.50;99.90
35027;DHT22;60696;51.426;6.934;2023-02-08T05:35:14;-0.60;99.90
35027;DHT22;60696;51.426;6.934;2023-02-08T05:37:39;-0.50;99.90
35027;DHT22;60696;51.426;6.934;2023-02-08T05:40:05;-0.60;99.90
35027;DHT22;60696;51.426;6.934;2023-02-08T05:42:31;-0.60;99.90
35027;DHT22;60696;51.426;6.934;2023-02-08T05:44:56;-0.60;99.90
35027;DHT22;60696;51.426;6.934;2023-02-08T05:47:22;-0.60;99.90
35027;DHT22;60696;51.426;6.934;2023-02-08T05:49:48;-0.60;99.90
35027;DHT22;60696;51.426;6.934;2023-02-08T05:52:13;-0.60;99.90
35027;DHT22;60696;51.426;6.934;2023-02-08T05:54:39;-0.60;99.90
35027;DHT22;60696;51.426;6.934;2023-02-08T05:57:04;-0.60;99.90
35027;DHT22;60696;51.426;6.934;2023-02-08T05:59:30;-0.60;99.90
35027;DHT22;60696;51.426;6.934;2023-02-08T06:04:30;-0.60;99.90
35027;DHT22;60696;51.426;6.934;2023-02-08T06:06:55;-0.60;99.90
35027;DHT22;60696;51.426;6.934;2023-02-08T06:09:21;-0.60;99.90
35027;DHT22;60696;51.426;6.934;2023-02-08T06:11:47;-0.50;99.90
35027;DHT22;60696;51.426;6.934;2023-02-08T06:14:12;-0.50;99.90
35027;DHT22;60696;51.426;6.934;2023-02-08T06:16:38;-0.50;99.90
35027;DHT22;60696;51.426;6.934;2023-02-08T06:19:03;-0.40;99.90
35027;DHT22;60696;51.426;6.934;2023-02-08T06:21:29;-0.40;99.90
35027;DHT22;60696;51.426;6.934;2023-02-08T06:23:54;-0.40;99.90
35027;DHT22;60696;51.426;6.934;2023-02-08T06:26:20;-0.40;99.90
35027;DHT22;60696;51.426;6.934;2023-02-08T06:28:46;-0.50;99.90
35027;DHT22;60696;51.426;6.934;2023-02-08T06:31:11;-0.50;99.90
35027;DHT22;60696;51.426;6.934;2023-02-08T06:33:37;-0.60;99.90
35027;DHT22;60696;51.426;6.934;2023-02-08T06:36:03;-0.60;99.90
35027;DHT22;60696;51.426;6.934;2023-02-08T06:38:28;-0.60;99.90
35027;DHT22;60696;51.426;6.934;2023-02-08T06:40:54;-0.70;99.90
35027;DHT22;60696;51.426;6.934;2023-02-08T06:43:19;-0.50;99.90
35027;DHT22;60696;51.426;6.934;2023-02-08T06:45:46;-0.50;99.90
35027;DHT22;60696;51.426;6.934;2023-02-08T06:48:12;-0.60;99.90
35027;DHT22;60696;51.426;6.934;2023-02-08T06:50:38;-0.50;99.90
35027;DHT22;60696;51.426;6.934;2023-02-08T06:53:04;-0.50;99.90
35027;DHT22;60696;51.426;6.934;2023-02-08T06:55:29;-0.40;99.90
35027;DHT22;60696;51.426;6.934;2023-02-08T06:57:55;-0.40;99.90
35027;DHT22;60696;51.426;6.934;2023-02-08T07:00:21;-0.40;99.90
35027;DHT22;60696;51.426;6.934;2023-02-08T07:02:46;-0.40;99.90
35027;DHT22;60696;51.426;6.934;2023-02-08T07:05:13;-0.40;99.90
35027;DHT22;60696;51.426;6.934;2023-02-08T07:07:38;-0.40;99.90
35027;DHT22;60696;51.426;6.934;2023-02-08T07:10:04;-0.40;99.90
35027;DHT22;60696;51.426;6.934;2023-02-08T07:12:34;-0.30;99.90
35027;DHT22;60696;51.426;6.934;2023-02-08T07:15:01;-0.20;99.90
35027;DHT22;60696;51.426;6.934;2023-02-08T07:17:26;-0.10;99.90
35027;DHT22;60696;51.426;6.934;2023-02-08T07:19:52;0.00;99.90
35027;DHT22;60696;51.426;6.934;2023-02-08T07:22:17;0.20;99.90
35027;DHT22;60696;51.426;6.934;2023-02-08T07:24:43;0.30;99.90
35027;DHT22;60696;51.426;6.934;2023-02-08T07:27:11;0.20;99.90
35027;DHT22;60696;51.426;6.934;2023-02-08T07:29:37;0.40;99.90
35027;DHT22;60696;51.426;6.934;2023-02-08T07:32:05;0.40;99.90
35027;DHT22;60696;51.426;6.934;2023-02-08T07:34:33;0.30;99.90
35027;DHT22;60696;51.426;6.934;2023-02-08T07:36:59;0.30;99.90
35027;DHT22;60696;51.426;6.934;2023-02-08T07:39:25;0.30;99.90
35027;DHT22;60696;51.426;6.934;2023-02-08T07:41:51;0.40;99.90
35027;DHT22;60696;51.426;6.934;2023-02-08T07:44:16;0.50;97.80
35027;DHT22;60696;51.426;6.934;2023-02-08T07:46:42;0.70;97.50
35027;DHT22;60696;51.426;6.934;2023-02-08T07:49:07;0.80;95.70
35027;DHT22;60696;51.426;6.934;2023-02-08T07:51:33;0.90;95.80
35027;DHT22;60696;51.426;6.934;2023-02-08T07:53:59;1.00;94.10
35027;DHT22;60696;51.426;6.934;2023-02-08T07:56:24;1.10;93.60
35027;DHT22;60696;51.426;6.934;2023-02-08T07:58:50;1.30;93.70
35027;DHT22;60696;51.426;6.934;2023-02-08T08:01:16;1.70;94.00
35027;DHT22;60696;51.426;6.934;2023-02-08T08:03:41;2.40;92.50
35027;DHT22;60696;51.426;6.934;2023-02-08T08:06:07;2.60;92.80
35027;DHT22;60696;51.426;6.934;2023-02-08T08:08:33;2.90;92.80
35027;DHT22;60696;51.426;6.934;2023-02-08T08:10:58;3.40;91.90
35027;DHT22;60696;51.426;6.934;2023-02-08T08:13:24;3.30;91.20
35027;DHT22;60696;51.426;6.934;2023-02-08T08:15:49;3.20;90.30
35027;DHT22;60696;51.426;6.934;2023-02-08T08:18:15;3.30;89.30
35027;DHT22;60696;51.426;6.934;2023-02-08T08:20:41;3.50;86.70
35027;DHT22;60696;51.426;6.934;2023-02-08T08:23:07;3.70;85.30
35027;DHT22;60696;51.426;6.934;2023-02-08T08:25:32;4.10;80.90
35027;DHT22;60696;51.426;6.934;2023-02-08T08:27:59;4.90;80.40
35027;DHT22;60696;51.426;6.934;2023-02-08T08:30:25;5.90;76.10
35027;DHT22;60696;51.426;6.934;2023-02-08T08:32:51;6.40;71.00
35027;DHT22;60696;51.426;6.934;2023-02-08T08:35:17;6.50;69.00
35027;DHT22;60696;51.426;6.934;2023-02-08T08:37:42;7.00;67.40
35027;DHT22;60696;51.426;6.934;2023-02-08T08:40:09;8.00;64.10
35027;DHT22;60696;51.426;6.934;2023-02-08T08:42:35;8.40;62.70
35027;DHT22;60696;51.426;6.934;2023-02-08T08:45:02;8.80;61.90
35027;DHT22;60696;51.426;6.934;2023-02-08T08:47:28;9.40;58.90
35027;DHT22;60696;51.426;6.934;2023-02-08T08:49:53;9.40;58.30
35027;DHT22;60696;51.426;6.934;2023-02-08T08:52:19;9.90;56.20
35027;DHT22;60696;51.426;6.934;2023-02-08T08:54:45;10.50;55.60
35027;DHT22;60696;51.426;6.934;2023-02-08T08:57:10;10.60;55.50
35027;DHT22;60696;51.426;6.934;2023-02-08T08:59:36;10.50;54.00
35027;DHT22;60696;51.426;6.934;2023-02-08T09:02:02;10.40;54.90
35027;DHT22;60696;51.426;6.934;2023-02-08T09:04:27;11.40;54.40
35027;DHT22;60696;51.426;6.934;2023-02-08T09:06:53;10.90;54.10
35027;DHT22;60696;51.426;6.934;2023-02-08T09:09:20;12.80;54.50
35027;DHT22;60696;51.426;6.934;2023-02-08T09:11:47;13.90;52.30
35027;DHT22;60696;51.426;6.934;2023-02-08T09:14:13;14.10;49.10
35027;DHT22;60696;51.426;6.934;2023-02-08T09:16:42;13.10;49.70
35027;DHT22;60696;51.426;6.934;2023-02-08T09:19:11;13.00;53.50
35027;DHT22;60696;51.426;6.934;2023-02-08T09:21:38;14.50;50.70
35027;DHT22;60696;51.426;6.934;2023-02-08T09:24:05;13.90;44.40
35027;DHT22;60696;51.426;6.934;2023-02-08T09:26:30;12.40;48.50
35027;DHT22;60696;51.426;6.934;2023-02-08T09:28:56;12.60;49.90
35027;DHT22;60696;51.426;6.934;2023-02-08T09:31:24;14.20;48.70
35027;DHT22;60696;51.426;6.934;2023-02-08T09:33:52;13.30;48.20
35027;DHT22;60696;51.426;6.934;2023-02-08T09:36:19;12.80;48.40
35027;DHT22;60696;51.426;6.934;2023-02-08T09:38:45;14.90;47.40
35027;DHT22;60696;51.426;6.934;2023-02-08T09:41:26;15.80;46.10
35027;DHT22;60696;51.426;6.934;2023-02-08T09:44:09;16.70;44.50
35027;DHT22;60696;51.426;6.934;2023-02-08T09:46:39;16.30;44.20
35027;DHT22;60696;51.426;6.934;2023-02-08T09:49:13;17.20;44.20
35027;DHT22;60696;51.426;6.934;2023-02-08T09:51:43;17.60;41.20
35027;DHT22;60696;51.426;6.934;2023-02-08T09:54:21;19.80;40.40
35027;DHT22;60696;51.426;6.934;2023-02-08T09:56:47;16.90;37.80
35027;DHT22;60696;51.426;6.934;2023-02-08T09:59:20;17.10;40.50
35027;DHT22;60696;51.426;6.934;2023-02-08T10:01:48;17.90;40.20
35027;DHT22;60696;51.426;6.934;2023-02-08T10:04:35;15.50;41.00
35027;DHT22;60696;51.426;6.934;2023-02-08T10:07:02;15.80;41.60
35027;DHT22;60696;51.426;6.934;2023-02-08T10:09:28;16.40;41.20
35027;DHT22;60696;51.426;6.934;2023-02-08T10:12:06;16.20;40.00
35027;DHT22;60696;51.426;6.934;2023-02-08T10:20:11;17.40;41.80
35027;DHT22;60696;51.426;6.934;2023-02-08T10:31:13;17.60;38.00
35027;DHT22;60696;51.426;6.934;2023-02-08T10:33:59;19.00;38.00
35027;DHT22;60696;51.426;6.934;2023-02-08T10:36:30;20.20;37.50
35027;DHT22;60696;51.426;6.934;2023-02-08T10:38:56;19.70;38.30
35027;DHT22;60696;51.426;6.934;2023-02-08T10:41:34;20.50;37.60
35027;DHT22;60696;51.426;6.934;2023-02-08T10:44:24;21.50;37.60
35027;DHT22;60696;51.426;6.934;2023-02-08T10:49:43;17.80;37.40
35027;DHT22;60696;51.426;6.934;2023-02-08T10:52:11;18.20;37.90
35027;DHT22;60696;51.426;6.934;2023-02-08T10:54:37;18.40;36.10
35027;DHT22;60696;51.426;6.934;2023-02-08T10:57:15;20.40;36.90
35027;DHT22;60696;51.426;6.934;2023-02-08T11:00:00;22.70;35.10
35027;DHT22;60696;51.426;6.934;2023-02-08T11:02:30;20.40;33.40
35027;DHT22;60696;51.426;6.934;2023-02-08T11:05:06;20.20;35.40
35027;DHT22;60696;51.426;6.934;2023-02-08T11:07:33;22.30;35.60
35027;DHT22;60696;51.426;6.934;2023-02-08T11:10:21;23.90;33.50
35027;DHT22;60696;51.426;6.934;2023-02-08T11:12:58;23.70;33.10
35027;DHT22;60696;51.426;6.934;2023-02-08T11:15:37;23.30;31.00
35027;DHT22;60696;51.426;6.934;2023-02-08T11:18:05;23.00;32.20
35027;DHT22;60696;51.426;6.934;2023-02-08T11:20:52;21.80;32.30
35027;DHT22;60696;51.426;6.934;2023-02-08T11:23:28;22.50;32.00
35027;DHT22;60696;51.426;6.934;2023-02-08T11:26:12;22.70;32.90
35027;DHT22;60696;51.426;6.934;2023-02-08T11:28:40;22.00;33.70
35027;DHT22;60696;51.426;6.934;2023-02-08T11:31:19;23.10;32.20
35027;DHT22;60696;51.426;6.934;2023-02-08T11:36:30;23.70;30.90
35027;DHT22;60696;51.426;6.934;2023-02-08T11:38:56;24.20;30.50
35027;DHT22;60696;51.426;6.934;2023-02-08T11:41:25;22.90;30.40
35027;DHT22;60696;51.426;6.934;2023-02-08T11:44:14;18.80;32.20
35027;DHT22;60696;51.426;6.934;2023-02-08T11:46:45;17.20;34.00
35027;DHT22;60696;51.426;6.934;2023-02-08T11:49:24;16.80;34.60
35027;DHT22;60696;51.426;6.934;2023-02-08T11:51:52;18.00;34.90
35027;DHT22;60696;51.426;6.934;2023-02-08T11:54:36;18.20;32.60
35027;DHT22;60696;51.426;6.934;2023-02-08T11:57:11;19.80;34.60
35027;DHT22;60696;51.426;6.934;2023-02-08T11:59:37;21.30;32.20
35027;DHT22;60696;51.426;6.934;2023-02-08T12:02:27;21.50;31.90
35027;DHT22;60696;51.426;6.934;2023-02-08T12:04:54;21.80;31.00
35027;DHT22;60696;51.426;6.934;2023-02-08T12:12:46;21.60;31.00
35027;DHT22;60696;51.426;6.934;2023-02-08T12:18:21;25.20;31.40
35027;DHT22;60696;51.426;6.934;2023-02-08T12:21:03;26.50;31.30
35027;DHT22;60696;51.426;6.934;2023-02-08T12:23:54;26.10;31.40
35027;DHT22;60696;51.426;6.934;2023-02-08T12:38:03;25.60;29.70
35027;DHT22;60696;51.426;6.934;2023-02-08T12:41:16;25.70;29.70
35027;DHT22;60696;51.426;6.934;2023-02-08T12:52:11;24.90;28.50
35027;DHT22;60696;51.426;6.934;2023-02-08T12:57:14;20.30;29.50
35027;DHT22;60696;51.426;6.934;2023-02-08T12:59:48;18.70;31.50
35027;DHT22;60696;51.426;6.934;2023-02-08T13:02:21;19.80;31.90
35027;DHT22;60696;51.426;6.934;2023-02-08T13:04:53;20.50;31.10
35027;DHT22;60696;51.426;6.934;2023-02-08T13:07:37;18.40;31.50
35027;DHT22;60696;51.426;6.934;2023-02-08T13:10:11;17.50;33.60
35027;DHT22;60696;51.426;6.934;2023-02-08T13:12:45;17.70;34.10
35027;DHT22;60696;51.426;6.934;2023-02-08T13:17:55;14.30;35.30
35027;DHT22;60696;51.426;6.934;2023-02-08T13:20:37;14.40;37.10
35027;DHT22;60696;51.426;6.934;2023-02-08T13:23:22;14.60;38.00
35027;DHT22;60696;51.426;6.934;2023-02-08T13:25:53;13.80;37.70
35027;DHT22;60696;51.426;6.934;2023-02-08T13:28:21;13.00;37.60
35027;DHT22;60696;51.426;6.934;2023-02-08T13:31:01;13.10;38.00
35027;DHT22;60696;51.426;6.934;2023-02-08T13:33:35;12.50;37.90
35027;DHT22;60696;51.426;6.934;2023-02-08T13:36:04;12.60;37.80
35027;DHT22;60696;51.426;6.934;2023-02-08T13:38:32;12.40;37.80
35027;DHT22;60696;51.426;6.934;2023-02-08T13:41:15;12.30;39.00
35027;DHT22;60696;51.426;6.934;2023-02-08T13:44:06;12.20;40.10
35027;DHT22;60696;51.426;6.934;2023-02-08T13:46:43;11.70;43.10
35027;DHT22;60696;51.426;6.934;2023-02-08T13:49:42;11.90;41.60
35027;DHT22;60696;51.426;6.934;2023-02-08T13:52:10;11.80;43.80
35027;DHT22;60696;51.426;6.934;2023-02-08T13:54:37;11.70;41.80
35027;DHT22;60696;51.426;6.934;2023-02-08T13:57:37;11.30;42.70
35027;DHT22;60696;51.426;6.934;2023-02-08T14:00:20;11.40;42.50
35027;DHT22;60696;51.426;6.934;2023-02-08T14:13:34;10.50;40.60
35027;DHT22;60696;51.426;6.934;2023-02-08T14:18:56;10.50;42.00
35027;DHT22;60696;51.426;6.934;2023-02-08T14:21:38;10.40;42.10
35027;DHT22;60696;51.426;6.934;2023-02-08T14:24:19;10.40;43.90
35027;DHT22;60696;51.426;6.934;2023-02-08T14:26:46;10.30;44.10
35027;DHT22;60696;51.426;6.934;2023-02-08T14:29:22;10.30;43.70
35027;DHT22;60696;51.426;6.934;2023-02-08T14:31:49;10.10;43.30
35027;DHT22;60696;51.426;6.934;2023-02-08T14:34:37;10.10;44.00
35027;DHT22;60696;51.426;6.934;2023-02-08T14:39:35;9.90;42.60
35027;DHT22;60696;51.426;6.934;2023-02-08T14:42:07;9.80;43.10
35027;DHT22;60696;51.426;6.934;2023-02-08T14:49:49;9.30;42.60
35027;DHT22;60696;51.426;6.934;2023-02-08T14:52:21;9.40;44.20
35027;DHT22;60696;51.426;6.934;2023-02-08T14:57:28;9.40;45.70
35027;DHT22;60696;51.426;6.934;2023-02-08T14:59:59;9.30;44.50
35027;DHT22;60696;51.426;6.934;2023-02-08T15:02:27;9.30;45.40
35027;DHT22;60696;51.426;6.934;2023-02-08T15:05:00;9.30;45.00
35027;DHT22;60696;51.426;6.934;2023-02-08T15:07:40;9.10;43.90
35027;DHT22;60696;51.426;6.934;2023-02-08T15:10:13;9.00;44.60
35027;DHT22;60696;51.426;6.934;2023-02-08T15:12:40;9.10;44.00
35027;DHT22;60696;51.426;6.934;2023-02-08T15:17:52;8.90;45.20
35027;DHT22;60696;51.426;6.934;2023-02-08T15:20:26;8.90;45.60
35027;DHT22;60696;51.426;6.934;2023-02-08T15:23:20;8.90;45.30
35027;DHT22;60696;51.426;6.934;2023-02-08T15:26:00;8.90;46.50
35027;DHT22;60696;51.426;6.934;2023-02-08T15:28:28;8.70;47.20
35027;DHT22;60696;51.426;6.934;2023-02-08T15:31:19;8.70;48.80
35027;DHT22;60696;51.426;6.934;2023-02-08T15:33:46;8.70;49.50
35027;DHT22;60696;51.426;6.934;2023-02-08T15:38:53;8.60;49.50
35027;DHT22;60696;51.426;6.934;2023-02-08T15:41:29;8.50;47.60
35027;DHT22;60696;51.426;6.934;2023-02-08T15:44:24;8.50;47.80
35027;DHT22;60696;51.426;6.934;2023-02-08T15:46:52;8.40;48.30
35027;DHT22;60696;51.426;6.934;2023-02-08T15:49:41;8.40;47.90
35027;DHT22;60696;51.426;6.934;2023-02-08T15:52:14;8.20;49.30
35027;DHT22;60696;51.426;6.934;2023-02-08T15:54:42;7.90;50.80
35027;DHT22;60696;51.426;6.934;2023-02-08T15:59:47;7.70;50.60
35027;DHT22;60696;51.426;6.934;2023-02-08T16:02:27;7.50;51.80
35027;DHT22;60696;51.426;6.934;2023-02-08T16:04:53;7.40;51.70
35027;DHT22;60696;51.426;6.934;2023-02-08T16:07:26;7.20;51.50
35027;DHT22;60696;51.426;6.934;2023-02-08T16:09:54;7.20;51.90
35027;DHT22;60696;51.426;6.934;2023-02-08T16:12:22;7.10;51.60
35027;DHT22;60696;51.426;6.934;2023-02-08T16:14:49;7.00;52.90
35027;DHT22;60696;51.426;6.934;2023-02-08T16:17:43;6.80;53.90
35027;DHT22;60696;51.426;6.934;2023-02-08T16:23:20;6.60;53.20
35027;DHT22;60696;51.426;6.934;2023-02-08T16:25:47;6.40;55.20
35027;DHT22;60696;51.426;6.934;2023-02-08T16:30:48;6.50;52.50
35027;DHT22;60696;51.426;6.934;2023-02-08T16:33:14;6.40;52.90
35027;DHT22;60696;51.426;6.934;2023-02-08T16:35:39;6.40;51.90
35027;DHT22;60696;51.426;6.934;2023-02-08T16:38:07;6.40;51.20
35027;DHT22;60696;51.426;6.934;2023-02-08T16:40:47;6.30;51.20
35027;DHT22;60696;51.426;6.934;2023-02-08T16:43:32;6.20;51.60
35027;DHT22;60696;51.426;6.934;2023-02-08T16:48:38;6.20;50.90
35027;DHT22;60696;51.426;6.934;2023-02-08T16:51:08;6.20;50.30
35027;DHT22;60696;51.426;6.934;2023-02-08T16:53:35;6.20;51.90
35027;DHT22;60696;51.426;6.934;2023-02-08T16:56:01;6.10;56.50
35027;DHT22;60696;51.426;6.934;2023-02-08T16:58:26;5.80;55.00
35027;DHT22;60696;51.426;6.934;2023-02-08T17:00:52;5.40;53.30
35027;DHT22;60696;51.426;6.934;2023-02-08T17:03:18;5.40;51.40
35027;DHT22;60696;51.426;6.934;2023-02-08T17:05:45;5.50;55.20
35027;DHT22;60696;51.426;6.934;2023-02-08T17:08:16;5.30;55.40
35027;DHT22;60696;51.426;6.934;2023-02-08T17:10:43;5.00;54.40
35027;DHT22;60696;51.426;6.934;2023-02-08T17:13:10;5.00;54.20
35027;DHT22;60696;51.426;6.934;2023-02-08T17:15:36;5.00;55.90
35027;DHT22;60696;51.426;6.934;2023-02-08T17:18:04;4.80;55.90
35027;DHT22;60696;51.426;6.934;2023-02-08T17:20:34;4.80;56.10
35027;DHT22;60696;51.426;6.934;2023-02-08T17:23:02;4.80;56.10
35027;DHT22;60696;51.426;6.934;2023-02-08T17:25:29;4.70;56.50
35027;DHT22;60696;51.426;6.934;2023-02-08T17:27:58;4.70;56.60
35027;DHT22;60696;51.426;6.934;2023-02-08T17:30:29;4.70;57.00
35027;DHT22;60696;51.426;6.934;2023-02-08T17:32:56;4.70;56.50
35027;DHT22;60696;51.426;6.934;2023-02-08T17:35:23;4.70;55.80
35027;DHT22;60696;51.426;6.934;2023-02-08T17:37:50;5.10;53.40
35027;DHT22;60696;51.426;6.934;2023-02-08T17:40:19;5.30;51.90
35027;DHT22;60696;51.426;6.934;2023-02-08T17:42:44;5.30;52.30
35027;DHT22;60696;51.426;6.934;2023-02-08T17:45:10;5.20;53.80
35027;DHT22;60696;51.426;6.934;2023-02-08T17:47:36;5.10;54.70
35027;DHT22;60696;51.426;6.934;2023-02-08T17:50:07;5.10;55.30
35027;DHT22;60696;51.426;6.934;2023-02-08T17:52:33;5.00;55.80
35027;DHT22;60696;51.426;6.934;2023-02-08T17:55:00;4.90;57.20
35027;DHT22;60696;51.426;6.934;2023-02-08T17:57:25;4.80;56.20
35027;DHT22;60696;51.426;6.934;2023-02-08T17:59:51;4.90;55.70
35027;DHT22;60696;51.426;6.934;2023-02-08T18:02:16;4.90;55.00
35027;DHT22;60696;51.426;6.934;2023-02-08T18:04:42;4.90;55.50
35027;DHT22;60696;51.426;6.934;2023-02-08T18:07:08;4.80;56.50
35027;DHT22;60696;51.426;6.934;2023-02-08T18:09:33;4.70;56.10